createdAt,value
2017-05-31T00:02:19.195Z,14.04
2017-05-31T00:04:48.051Z,12.98
2017-05-31T00:07:16.905Z,15.74
2017-05-31T00:09:45.759Z,14.86
2017-05-31T00:12:14.604Z,14.22
2017-05-31T00:14:43.451Z,19.96
2017-05-31T00:17:12.307Z,15.96
2017-05-31T00:19:40.387Z,14.66
2017-05-31T00:22:09.235Z,16.78
2017-05-31T00:24:38.075Z,16.06
2017-05-31T00:27:06.960Z,18.34
2017-05-31T00:29:35.032Z,17.54
2017-05-31T00:32:03.915Z,18.04
2017-05-31T00:34:32.767Z,16.52
2017-05-31T00:37:01.607Z,17.70
2017-05-31T00:39:30.465Z,15.78
2017-05-31T00:41:58.543Z,16.16
2017-05-31T00:44:27.416Z,16.54
2017-05-31T00:46:56.265Z,17.62
2017-05-31T00:49:25.107Z,18.18
2017-05-31T00:51:53.955Z,21.06
2017-05-31T00:54:22.810Z,17.20
2017-05-31T00:56:50.894Z,21.44
2017-05-31T00:59:19.759Z,21.46
2017-05-31T01:01:48.611Z,19.44
2017-05-31T01:04:17.461Z,19.38
2017-05-31T01:06:46.297Z,16.82
2017-05-31T01:09:15.147Z,18.06
2017-05-31T01:11:43.995Z,20.64
2017-05-31T01:14:12.839Z,19.22
2017-05-31T01:16:41.692Z,20.14
2017-05-31T01:19:10.555Z,17.10
2017-05-31T01:21:39.395Z,18.46
2017-05-31T01:24:08.239Z,19.52
2017-05-31T01:26:37.091Z,18.40
2017-05-31T01:29:05.948Z,15.14
2017-05-31T01:31:34.805Z,16.30
2017-05-31T01:34:03.641Z,16.74
2017-05-31T01:36:32.521Z,17.62
2017-05-31T01:39:00.596Z,16.48
2017-05-31T01:41:29.540Z,20.68
2017-05-31T01:43:58.408Z,19.90
2017-05-31T01:46:27.252Z,20.44
2017-05-31T01:48:55.344Z,20.92
2017-05-31T01:51:24.199Z,21.74
2017-05-31T01:53:53.056Z,21.88
2017-05-31T01:56:21.908Z,23.26
2017-05-31T01:58:50.757Z,23.72
2017-05-31T02:01:19.603Z,25.12
2017-05-31T02:03:47.699Z,22.06
2017-05-31T02:06:16.555Z,18.98
2017-05-31T02:08:44.627Z,21.64
2017-05-31T02:11:13.487Z,18.86
2017-05-31T02:13:42.356Z,17.28
2017-05-31T02:16:11.200Z,18.00
2017-05-31T02:18:39.284Z,18.40
2017-05-31T02:21:08.132Z,18.06
2017-05-31T02:23:36.975Z,18.92
2017-05-31T02:26:05.839Z,18.68
2017-05-31T02:28:33.947Z,18.22
2017-05-31T02:31:02.797Z,18.84
2017-05-31T02:33:30.880Z,18.60
2017-05-31T02:35:59.727Z,18.42
2017-05-31T02:38:28.584Z,19.54
2017-05-31T02:40:56.683Z,20.34
2017-05-31T02:43:25.523Z,18.88
2017-05-31T02:45:54.388Z,20.34
2017-05-31T02:48:23.232Z,20.10
2017-05-31T02:50:52.071Z,20.30
2017-05-31T02:53:20.923Z,20.40
2017-05-31T02:55:49.781Z,17.56
2017-05-31T02:58:17.863Z,19.92
2017-05-31T03:00:46.722Z,19.12
2017-05-31T03:03:15.589Z,19.60
2017-05-31T03:05:44.451Z,18.76
2017-05-31T03:08:13.287Z,17.96
2017-05-31T03:10:42.139Z,18.48
2017-05-31T03:13:11.003Z,18.62
2017-05-31T03:15:39.843Z,18.06
2017-05-31T03:18:08.696Z,19.76
2017-05-31T03:20:37.567Z,18.48
2017-05-31T03:23:06.412Z,19.00
2017-05-31T03:25:35.259Z,19.88
2017-05-31T03:28:03.343Z,18.08
2017-05-31T03:30:32.188Z,18.58
2017-05-31T03:33:01.040Z,17.74
2017-05-31T03:35:29.892Z,18.62
2017-05-31T03:37:58.755Z,18.46
2017-05-31T03:40:27.596Z,17.82
2017-05-31T03:42:56.563Z,18.52
2017-05-31T03:45:25.419Z,20.06
2017-05-31T03:47:54.260Z,19.34
2017-05-31T03:50:23.120Z,19.14
2017-05-31T03:52:51.969Z,19.48
2017-05-31T03:55:20.839Z,19.20
2017-05-31T03:57:49.688Z,19.42
2017-05-31T04:00:18.600Z,20.66
2017-05-31T04:02:47.503Z,19.42
2017-05-31T04:05:16.371Z,41.52
2017-05-31T04:07:45.372Z,27.52
2017-05-31T04:10:14.223Z,26.64
2017-05-31T04:12:43.084Z,22.24
2017-05-31T04:15:11.948Z,20.72
2017-05-31T04:17:40.802Z,19.32
2017-05-31T04:20:09.664Z,20.06
2017-05-31T04:22:38.828Z,20.10
2017-05-31T04:25:07.704Z,19.32
2017-05-31T04:27:36.546Z,18.32
2017-05-31T04:30:05.415Z,19.22
2017-05-31T04:32:34.298Z,18.58
2017-05-31T04:35:03.150Z,17.10
2017-05-31T04:37:31.996Z,19.98
2017-05-31T04:40:00.840Z,19.28
2017-05-31T04:42:29.687Z,20.42
2017-05-31T04:44:58.543Z,17.84
2017-05-31T04:47:26.654Z,17.62
2017-05-31T04:49:56.406Z,19.46
2017-05-31T04:52:25.252Z,20.14
2017-05-31T04:54:54.108Z,20.18
2017-05-31T04:57:22.956Z,22.34
2017-05-31T04:59:52.179Z,24.30
2017-05-31T05:02:21.020Z,27.94
2017-05-31T05:04:49.954Z,25.18
2017-05-31T05:07:18.760Z,26.34
2017-05-31T05:09:46.839Z,25.84
2017-05-31T05:12:15.698Z,25.60
2017-05-31T05:14:44.545Z,25.62
2017-05-31T05:17:12.631Z,25.52
2017-05-31T05:19:41.623Z,25.00
2017-05-31T05:22:10.504Z,26.78
2017-05-31T05:24:39.352Z,27.60
2017-05-31T05:27:08.199Z,27.10
2017-05-31T05:29:37.051Z,26.96
2017-05-31T05:32:05.896Z,25.86
2017-05-31T05:34:34.747Z,27.00
2017-05-31T05:37:03.606Z,25.76
2017-05-31T05:39:32.455Z,24.12
2017-05-31T05:42:01.327Z,26.12
2017-05-31T05:44:30.171Z,24.32
2017-05-31T05:46:59.031Z,23.12
2017-05-31T05:49:27.879Z,23.94
2017-05-31T05:51:56.744Z,24.84
2017-05-31T05:54:25.602Z,28.02
2017-05-31T05:56:54.487Z,23.44
2017-05-31T05:59:23.343Z,22.88
2017-05-31T06:01:52.195Z,20.32
2017-05-31T06:04:21.061Z,21.76
2017-05-31T06:06:49.926Z,25.80
2017-05-31T06:09:18.019Z,19.86
2017-05-31T06:11:46.874Z,21.50
2017-05-31T06:14:15.755Z,23.00
2017-05-31T06:16:44.605Z,22.60
2017-05-31T06:19:13.453Z,22.32
2017-05-31T06:21:42.334Z,21.18
2017-05-31T06:24:11.176Z,22.06
2017-05-31T06:26:40.029Z,22.68
2017-05-31T06:29:08.878Z,25.10
2017-05-31T06:31:37.750Z,23.54
2017-05-31T06:34:06.604Z,22.44
2017-05-31T06:36:35.452Z,22.80
2017-05-31T06:39:04.308Z,21.24
2017-05-31T06:41:33.152Z,20.32
2017-05-31T06:44:02.007Z,19.44
2017-05-31T06:46:30.951Z,21.84
2017-05-31T06:48:59.815Z,19.46
2017-05-31T06:51:28.700Z,22.68
2017-05-31T06:53:57.544Z,21.04
2017-05-31T06:56:26.405Z,29.96
2017-05-31T06:58:54.503Z,26.94
2017-05-31T07:01:23.363Z,22.76
2017-05-31T07:03:52.216Z,20.60
2017-05-31T07:06:21.080Z,21.18
2017-05-31T07:08:49.936Z,21.22
2017-05-31T07:11:18.815Z,20.26
2017-05-31T07:13:47.683Z,21.22
2017-05-31T07:16:16.537Z,21.78
2017-05-31T07:18:45.391Z,18.14
2017-05-31T07:21:14.252Z,20.80
2017-05-31T07:23:43.116Z,19.08
2017-05-31T07:26:11.997Z,21.74
2017-05-31T07:28:40.880Z,20.14
2017-05-31T07:31:09.789Z,18.44
2017-05-31T07:33:38.657Z,19.46
2017-05-31T07:36:07.524Z,21.42
2017-05-31T07:38:36.372Z,20.94
2017-05-31T07:41:05.241Z,20.02
2017-05-31T07:43:33.332Z,20.70
2017-05-31T07:46:02.221Z,22.14
2017-05-31T07:48:31.080Z,20.84
2017-05-31T07:50:59.192Z,20.02
2017-05-31T07:53:28.054Z,19.28
2017-05-31T07:55:56.919Z,19.92
2017-05-31T07:58:25.796Z,18.72
2017-05-31T08:00:54.650Z,19.62
2017-05-31T08:03:23.515Z,21.14
2017-05-31T08:05:52.380Z,19.60
2017-05-31T08:08:21.232Z,19.50
2017-05-31T08:10:50.093Z,18.98
2017-05-31T08:13:18.953Z,20.96
2017-05-31T08:15:47.795Z,21.28
2017-05-31T08:18:15.884Z,20.38
2017-05-31T08:20:44.727Z,19.56
2017-05-31T08:23:12.824Z,18.42
2017-05-31T08:25:41.676Z,21.52
2017-05-31T08:28:10.563Z,20.88
2017-05-31T08:30:39.420Z,18.92
2017-05-31T08:33:08.273Z,16.98
2017-05-31T08:35:37.131Z,18.60
2017-05-31T08:38:05.987Z,19.16
2017-05-31T08:40:34.844Z,17.84
2017-05-31T08:43:03.691Z,17.88
2017-05-31T08:45:32.567Z,18.98
2017-05-31T08:48:01.412Z,18.46
2017-05-31T08:50:29.509Z,17.98
2017-05-31T08:52:58.378Z,19.56
2017-05-31T08:55:27.220Z,16.96
2017-05-31T08:57:56.076Z,19.24
2017-05-31T09:00:24.929Z,15.10
2017-05-31T09:02:53.814Z,12.76
2017-05-31T09:05:22.656Z,14.02
2017-05-31T09:07:51.503Z,12.18
2017-05-31T09:10:19.601Z,14.20
2017-05-31T09:12:48.448Z,16.72
2017-05-31T09:15:17.297Z,14.14
2017-05-31T09:17:46.144Z,15.92
2017-05-31T09:20:15.042Z,13.90
2017-05-31T09:22:43.910Z,18.06
2017-05-31T09:25:12.758Z,12.28
2017-05-31T09:27:41.708Z,12.74
2017-05-31T09:30:10.581Z,11.82
2017-05-31T09:32:39.436Z,15.06
2017-05-31T09:35:08.288Z,15.02
2017-05-31T09:37:37.171Z,16.72
2017-05-31T09:40:06.025Z,12.52
2017-05-31T09:42:34.872Z,12.40
2017-05-31T09:45:03.759Z,14.08
2017-05-31T09:47:31.831Z,12.30
2017-05-31T09:50:00.688Z,10.74
2017-05-31T09:52:29.621Z,10.18
2017-05-31T09:54:58.487Z,10.64
2017-05-31T09:57:27.343Z,10.50
2017-05-31T09:59:56.197Z,10.12
2017-05-31T10:02:24.283Z,10.92
2017-05-31T10:04:53.135Z,11.46
2017-05-31T10:07:21.975Z,10.06
2017-05-31T10:09:50.840Z,10.24
2017-05-31T10:12:19.700Z,12.50
2017-05-31T10:14:48.548Z,12.84
2017-05-31T10:17:17.392Z,10.60
2017-05-31T10:19:46.240Z,10.02
2017-05-31T10:22:15.084Z,10.20
2017-05-31T10:24:43.932Z,7.52
2017-05-31T10:27:12.773Z,9.22
2017-05-31T10:29:40.872Z,8.34
2017-05-31T10:32:09.728Z,11.48
2017-05-31T10:34:39.454Z,8.64
2017-05-31T10:37:08.328Z,7.68
2017-05-31T10:39:36.405Z,7.76
2017-05-31T10:42:05.259Z,9.14
2017-05-31T10:44:34.108Z,8.10
2017-05-31T10:47:02.956Z,8.32
2017-05-31T10:49:31.804Z,6.28
2017-05-31T10:52:00.657Z,7.02
2017-05-31T10:54:29.504Z,7.10
2017-05-31T10:56:58.355Z,13.78
2017-05-31T10:59:27.203Z,6.30
2017-05-31T11:01:56.047Z,7.40
2017-05-31T11:04:24.907Z,15.08
2017-05-31T11:06:52.984Z,5.72
2017-05-31T11:09:21.861Z,7.28
2017-05-31T11:11:50.695Z,5.68
2017-05-31T11:14:19.551Z,5.50
2017-05-31T11:16:48.401Z,4.96
2017-05-31T11:19:17.247Z,6.90
2017-05-31T11:21:45.335Z,6.22
2017-05-31T11:24:14.176Z,6.08
2017-05-31T11:26:43.024Z,9.10
2017-05-31T11:29:11.869Z,8.42
2017-05-31T11:31:39.972Z,5.78
2017-05-31T11:34:08.825Z,11.20
2017-05-31T11:36:37.659Z,5.88
2017-05-31T11:39:06.515Z,6.50
2017-05-31T11:41:35.364Z,6.50
2017-05-31T11:44:04.215Z,20.36
2017-05-31T11:46:33.065Z,5.32
2017-05-31T11:49:01.907Z,4.62
2017-05-31T11:51:30.755Z,10.76
2017-05-31T11:53:59.643Z,5.22
2017-05-31T11:56:28.533Z,7.64
2017-05-31T11:58:57.366Z,7.38
2017-05-31T12:01:26.219Z,4.48
2017-05-31T12:03:55.780Z,6.22
2017-05-31T12:06:24.807Z,6.02
2017-05-31T12:08:53.653Z,4.58
2017-05-31T12:11:22.508Z,5.32
2017-05-31T12:13:51.347Z,5.44
2017-05-31T12:16:20.224Z,7.64
2017-05-31T12:18:49.081Z,7.64
2017-05-31T12:21:17.155Z,7.68
2017-05-31T12:23:46.008Z,5.04
2017-05-31T12:26:14.847Z,5.90
2017-05-31T12:28:43.711Z,4.84
2017-05-31T12:31:12.550Z,5.66
2017-05-31T12:33:41.391Z,5.94
2017-05-31T12:36:10.236Z,5.18
2017-05-31T12:38:39.116Z,10.52
2017-05-31T12:41:07.191Z,5.44
2017-05-31T12:43:36.039Z,6.44
2017-05-31T12:46:04.916Z,6.76
2017-05-31T12:48:33.755Z,7.20
2017-05-31T12:51:02.608Z,6.16
2017-05-31T12:53:31.443Z,6.68
2017-05-31T12:56:00.292Z,5.38
2017-05-31T12:58:29.138Z,7.34
2017-05-31T13:00:58.009Z,5.74
2017-05-31T13:03:26.867Z,5.40
2017-05-31T13:05:55.704Z,6.12
2017-05-31T13:08:24.556Z,6.60
2017-05-31T13:10:52.654Z,5.64
2017-05-31T13:13:21.511Z,7.46
2017-05-31T13:15:50.347Z,5.26
2017-05-31T13:18:19.230Z,4.96
2017-05-31T13:20:48.076Z,6.68
2017-05-31T13:23:16.915Z,5.40
2017-05-31T13:25:45.780Z,6.72
2017-05-31T13:28:13.851Z,8.00
2017-05-31T13:30:42.711Z,5.14
2017-05-31T13:33:11.549Z,5.32
2017-05-31T13:35:40.400Z,4.38
2017-05-31T13:38:09.241Z,7.26
2017-05-31T13:40:38.127Z,5.96
2017-05-31T13:43:06.971Z,6.16
2017-05-31T13:45:35.812Z,5.56
2017-05-31T13:48:04.672Z,6.60
2017-05-31T13:50:32.747Z,5.78
2017-05-31T13:53:01.717Z,5.54
2017-05-31T13:55:30.561Z,5.22
2017-05-31T13:57:59.416Z,5.04
2017-05-31T14:00:27.497Z,6.10
2017-05-31T14:02:56.368Z,5.20
2017-05-31T14:05:25.220Z,6.04
2017-05-31T14:07:54.069Z,7.28
2017-05-31T14:10:22.925Z,6.78
2017-05-31T14:12:51.764Z,6.32
2017-05-31T14:15:20.619Z,5.76
2017-05-31T14:17:49.476Z,7.32
2017-05-31T14:20:18.324Z,7.18
2017-05-31T14:22:46.407Z,6.98
2017-05-31T14:25:15.269Z,9.84
2017-05-31T14:27:44.117Z,7.56
2017-05-31T14:30:12.997Z,5.96
2017-05-31T14:32:41.845Z,6.62
2017-05-31T14:35:10.713Z,7.00
2017-05-31T14:37:39.551Z,7.40
2017-05-31T14:40:09.588Z,9.14
2017-05-31T14:42:38.437Z,6.68
2017-05-31T14:45:07.275Z,7.06
2017-05-31T14:47:36.152Z,8.14
2017-05-31T14:50:04.990Z,8.20
2017-05-31T14:52:33.875Z,7.82
2017-05-31T14:55:02.724Z,7.96
2017-05-31T14:57:31.599Z,6.88
2017-05-31T15:00:00.439Z,7.16
2017-05-31T15:02:29.284Z,7.24
2017-05-31T15:04:58.152Z,8.12
2017-05-31T15:07:26.987Z,6.56
2017-05-31T15:09:55.849Z,7.60
2017-05-31T15:12:24.687Z,8.78
2017-05-31T15:14:53.539Z,7.56
2017-05-31T15:17:22.442Z,7.26
2017-05-31T15:19:51.410Z,6.84
2017-05-31T15:22:19.480Z,7.38
2017-05-31T15:24:48.337Z,7.60
2017-05-31T15:27:17.187Z,8.52
2017-05-31T15:29:46.031Z,6.48
2017-05-31T15:32:14.879Z,7.84
2017-05-31T15:34:43.723Z,7.92
2017-05-31T15:37:11.836Z,6.70
2017-05-31T15:39:40.676Z,7.08
2017-05-31T15:42:09.549Z,6.80
2017-05-31T15:44:38.392Z,7.38
2017-05-31T15:47:07.243Z,7.52
2017-05-31T15:49:36.083Z,7.56
2017-05-31T15:52:04.940Z,8.16
2017-05-31T15:54:33.787Z,7.26
2017-05-31T15:57:02.627Z,6.60
2017-05-31T15:59:31.475Z,7.14
2017-05-31T16:02:00.316Z,6.30
2017-05-31T16:04:29.251Z,7.26
2017-05-31T16:06:58.108Z,8.08
2017-05-31T16:09:27.147Z,7.10
2017-05-31T16:11:55.996Z,6.70
2017-05-31T16:14:24.847Z,7.58
2017-05-31T16:16:53.690Z,6.70
2017-05-31T16:19:22.533Z,6.90
2017-05-31T16:21:51.379Z,6.68
2017-05-31T16:24:20.231Z,7.00
2017-05-31T16:26:49.099Z,7.40
2017-05-31T16:29:17.938Z,8.16
2017-05-31T16:31:46.784Z,6.76
2017-05-31T16:34:15.732Z,6.30
2017-05-31T16:36:44.583Z,6.02
2017-05-31T16:39:12.671Z,5.40
2017-05-31T16:41:41.528Z,4.88
2017-05-31T16:44:10.475Z,5.80
2017-05-31T16:46:39.311Z,4.58
2017-05-31T16:49:08.220Z,5.74
2017-05-31T16:51:37.056Z,6.02
2017-05-31T16:54:05.912Z,7.06
2017-05-31T16:56:34.760Z,7.74
2017-05-31T16:59:03.600Z,8.44
2017-05-31T17:01:32.487Z,4.74
2017-05-31T17:04:01.343Z,4.16
2017-05-31T17:06:30.233Z,4.92
2017-05-31T17:08:59.499Z,4.50
2017-05-31T17:11:28.532Z,4.34
2017-05-31T17:13:57.734Z,5.28
2017-05-31T17:16:26.600Z,4.22
2017-05-31T17:18:55.479Z,7.24
2017-05-31T17:21:24.400Z,3.92
2017-05-31T17:23:53.243Z,4.38
2017-05-31T17:26:22.094Z,4.16
2017-05-31T17:31:26.240Z,4.50
2017-05-31T17:33:55.096Z,4.04
2017-05-31T17:36:23.936Z,40.10
2017-05-31T17:38:52.811Z,5.68
2017-05-31T17:41:21.652Z,4.92
2017-05-31T17:43:50.516Z,4.22
2017-05-31T17:46:19.428Z,5.26
2017-05-31T17:48:48.328Z,5.34
2017-05-31T17:51:17.245Z,3.92
2017-05-31T17:53:46.091Z,3.72
2017-05-31T17:56:14.968Z,5.64
2017-05-31T17:58:43.035Z,3.60
2017-05-31T18:01:11.921Z,4.62
2017-05-31T18:03:40.792Z,11.90
2017-05-31T18:06:09.645Z,5.58
2017-05-31T18:08:38.512Z,10.64
2017-05-31T18:11:07.489Z,4.94
2017-05-31T18:13:36.352Z,4.68
2017-05-31T18:16:05.236Z,4.54
2017-05-31T18:18:34.085Z,8.08
2017-05-31T18:21:02.928Z,3.90
2017-05-31T18:23:31.808Z,4.08
2017-05-31T18:26:00.651Z,3.14
2017-05-31T18:28:29.492Z,3.94
2017-05-31T18:30:58.339Z,4.32
2017-05-31T18:33:27.208Z,4.20
2017-05-31T18:35:56.059Z,4.62
2017-05-31T18:38:24.912Z,4.84
2017-05-31T18:40:53.784Z,3.30
2017-05-31T18:43:21.854Z,4.72
2017-05-31T18:45:50.704Z,3.56
2017-05-31T18:48:19.543Z,3.68
2017-05-31T18:50:48.396Z,6.92
2017-05-31T18:53:17.240Z,4.02
2017-05-31T18:55:46.092Z,3.64
2017-05-31T18:58:14.939Z,3.58
2017-05-31T19:00:43.808Z,3.14
2017-05-31T19:03:12.659Z,7.84
2017-05-31T19:05:41.508Z,4.58
2017-05-31T19:08:10.394Z,3.98
2017-05-31T19:10:39.232Z,3.50
2017-05-31T19:13:08.104Z,5.00
2017-05-31T19:15:36.952Z,4.82
2017-05-31T19:18:05.797Z,4.60
2017-05-31T19:20:33.877Z,7.50
2017-05-31T19:23:02.765Z,4.32
2017-05-31T19:25:31.588Z,3.40
2017-05-31T19:28:00.427Z,3.56
2017-05-31T19:30:29.277Z,4.20
2017-05-31T19:32:58.111Z,3.32
2017-05-31T19:35:26.979Z,3.50
2017-05-31T19:37:55.832Z,6.86
2017-05-31T19:40:23.920Z,5.50
2017-05-31T19:42:52.771Z,4.84
2017-05-31T19:45:21.611Z,5.06
2017-05-31T19:47:50.461Z,4.38
2017-05-31T19:50:19.295Z,7.38
2017-05-31T19:52:48.147Z,5.86
2017-05-31T19:55:16.992Z,4.62
2017-05-31T19:57:45.852Z,4.74
2017-05-31T20:00:14.851Z,5.20
2017-05-31T20:02:43.690Z,7.18
2017-05-31T20:05:12.579Z,6.64
2017-05-31T20:07:41.428Z,10.30
2017-05-31T20:10:10.276Z,10.24
2017-05-31T20:12:38.355Z,5.94
2017-05-31T20:15:07.225Z,6.90
2017-05-31T20:17:36.067Z,7.12
2017-05-31T20:20:04.908Z,5.96
2017-05-31T20:22:33.767Z,6.34
2017-05-31T20:25:02.630Z,5.56
2017-05-31T20:27:31.471Z,5.60
2017-05-31T20:30:00.307Z,4.88
2017-05-31T20:32:29.179Z,5.62
2017-05-31T20:34:58.015Z,5.24
2017-05-31T20:37:26.863Z,5.98
2017-05-31T20:39:55.715Z,8.32
2017-05-31T20:42:24.556Z,5.90
2017-05-31T20:44:53.403Z,5.40
2017-05-31T20:47:22.244Z,5.66
2017-05-31T20:49:51.105Z,5.60
2017-05-31T20:52:19.943Z,5.80
2017-05-31T20:54:48.816Z,8.72
2017-05-31T20:57:17.664Z,5.08
2017-05-31T20:59:46.508Z,5.26
2017-05-31T21:02:15.360Z,5.30
2017-05-31T21:04:44.199Z,5.72
2017-05-31T21:07:13.052Z,6.76
2017-05-31T21:09:41.899Z,5.24
2017-05-31T21:12:10.775Z,6.02
2017-05-31T21:14:39.612Z,5.90
2017-05-31T21:17:07.688Z,5.14
2017-05-31T21:19:36.687Z,6.18
2017-05-31T21:22:05.524Z,6.48
2017-05-31T21:24:34.380Z,7.50
2017-05-31T21:27:03.227Z,7.14
2017-05-31T21:29:32.067Z,6.68
2017-05-31T21:32:01.012Z,4.62
2017-05-31T21:34:29.860Z,5.24
2017-05-31T21:36:58.708Z,7.54
2017-05-31T21:39:26.805Z,4.90
2017-05-31T21:41:55.655Z,4.80
2017-05-31T21:44:24.496Z,4.72
2017-05-31T21:46:53.344Z,6.34
2017-05-31T21:49:22.188Z,5.74
2017-05-31T21:51:51.051Z,5.28
2017-05-31T21:54:19.887Z,8.56
2017-05-31T21:56:48.739Z,5.82
2017-05-31T21:59:17.584Z,6.06
2017-05-31T22:01:46.450Z,6.92
2017-05-31T22:04:15.294Z,6.34
2017-05-31T22:06:43.359Z,5.94
2017-05-31T22:09:12.204Z,5.64
2017-05-31T22:11:41.121Z,6.70
2017-05-31T22:14:09.971Z,5.32
2017-05-31T22:16:38.864Z,6.22
2017-05-31T22:19:07.731Z,7.30
2017-05-31T22:21:36.561Z,5.76
2017-05-31T22:24:05.427Z,8.96
2017-05-31T22:26:34.296Z,5.62
2017-05-31T22:29:03.131Z,5.28
2017-05-31T22:31:31.987Z,6.32
2017-05-31T22:36:36.000Z,6.26
2017-05-31T22:39:04.091Z,7.22
2017-05-31T22:41:32.949Z,6.60
2017-05-31T22:44:01.789Z,7.08
2017-05-31T22:46:30.660Z,6.62
2017-05-31T22:48:59.506Z,6.24
2017-05-31T22:51:28.339Z,6.92
2017-05-31T22:54:08.065Z,6.96
2017-05-31T22:56:36.904Z,6.38
2017-05-31T22:59:05.819Z,6.90
2017-05-31T23:01:34.669Z,7.18
2017-05-31T23:04:02.750Z,6.54
2017-05-31T23:06:31.600Z,6.80
2017-05-31T23:08:59.705Z,7.08
2017-05-31T23:11:28.543Z,7.24
2017-05-31T23:13:58.191Z,6.56
2017-05-31T23:16:27.058Z,6.02
2017-05-31T23:18:55.887Z,9.06
2017-05-31T23:21:24.804Z,7.36
2017-05-31T23:23:53.649Z,8.32
2017-05-31T23:26:22.508Z,6.94
2017-05-31T23:28:51.348Z,6.66
2017-05-31T23:31:20.217Z,7.82
2017-05-31T23:33:49.060Z,7.38
2017-05-31T23:36:17.912Z,7.66
2017-05-31T23:38:45.993Z,8.08
2017-05-31T23:41:14.839Z,7.10
2017-05-31T23:43:43.683Z,7.92
2017-05-31T23:46:12.523Z,7.58
2017-05-31T23:48:41.367Z,8.84
2017-05-31T23:51:10.212Z,11.56
2017-05-31T23:53:38.308Z,5.92
2017-05-31T23:56:07.150Z,7.08
2017-05-31T23:58:35.988Z,5.92
